Time;durP1;ratioP1;P1;durP2;ratioP2;P2;SDS_P1;SDS_P2;PMS_P1;PMS_P2;Temp;Humidity;BMP_temperature;BMP_pressure;BME280_temperature;BME280_humidity;BME280_pressure;Samples;Min_cycle;Max_cycle;Signal;HPM_P1;HPM_P2
2023/04/15 00:00:28;;;;;;;11.70;3.97;;;8.50;99.90;;;;;;5112533;28;20417;-54
2023/04/15 00:02:54;;;;;;;6.97;4.22;;;8.40;99.90;;;;;;5112677;28;20019;-56
2023/04/15 00:05:19;;;;;;;10.88;4.93;;;8.30;99.90;;;;;;5112441;28;20547;-52
2023/04/15 00:07:46;;;;;;;10.55;4.25;;;8.10;99.90;;;;;;5111842;28;20023;-54
2023/04/15 00:10:12;;;;;;;13.48;4.78;;;8.10;99.90;;;;;;5112671;28;20091;-54
2023/04/15 00:12:37;;;;;;;10.30;4.82;;;8.00;99.90;;;;;;5112328;28;20020;-53
2023/04/15 00:15:03;;;;;;;10.43;4.53;;;8.00;99.90;;;;;;5112191;28;20034;-55
2023/04/15 00:17:29;;;;;;;7.68;4.10;;;8.00;99.90;;;;;;5112138;28;20110;-53
2023/04/15 00:19:55;;;;;;;12.27;5.00;;;7.90;99.90;;;;;;5112200;28;20027;-54
2023/04/15 00:22:21;;;;;;;11.77;4.57;;;7.90;99.90;;;;;;5112091;28;20426;-55
2023/04/15 00:24:47;;;;;;;11.02;4.63;;;7.90;99.90;;;;;;5111615;28;20068;-55
2023/04/15 00:27:14;;;;;;;10.07;4.53;;;8.00;99.90;;;;;;5112312;28;20044;-54
2023/04/15 00:29:39;;;;;;;5.88;4.20;;;8.00;99.90;;;;;;5112020;28;20022;-51
2023/04/15 00:32:05;;;;;;;9.48;4.40;;;8.00;99.90;;;;;;5112170;28;20016;-55
2023/04/15 00:34:31;;;;;;;6.90;4.20;;;8.00;99.90;;;;;;5111861;28;20019;-56
2023/04/15 00:36:57;;;;;;;7.18;4.40;;;8.00;99.90;;;;;;5111981;28;20386;-50
2023/04/15 00:39:22;;;;;;;8.25;4.57;;;8.00;99.90;;;;;;5111809;28;20020;-54
2023/04/15 00:41:48;;;;;;;12.65;3.88;;;8.00;99.90;;;;;;5111685;28;20074;-54
2023/04/15 00:44:14;;;;;;;9.00;4.20;;;8.00;99.90;;;;;;5111259;28;20073;-57
2023/04/15 00:46:42;;;;;;;6.65;4.50;;;8.00;99.90;;;;;;5111843;28;20435;-55
2023/04/15 00:49:07;;;;;;;12.98;5.13;;;8.00;99.90;;;;;;5111687;28;20023;-56
2023/04/15 00:51:35;;;;;;;5.97;4.18;;;7.90;99.90;;;;;;5093427;28;20016;-55
2023/04/15 00:54:05;;;;;;;7.53;3.95;;;7.80;99.90;;;;;;5093357;28;20016;-51
2023/04/15 00:56:34;;;;;;;6.63;4.15;;;7.80;99.90;;;;;;5111676;28;20023;-53
2023/04/15 00:59:00;;;;;;;9.27;4.47;;;7.80;99.90;;;;;;5111559;28;20495;-55
2023/04/15 01:01:28;;;;;;;7.47;4.88;;;7.70;99.90;;;;;;5111652;28;20479;-56
2023/04/15 01:03:55;;;;;;;10.52;4.60;;;7.80;99.90;;;;;;5111504;28;20035;-53
2023/04/15 01:06:21;;;;;;;6.82;4.07;;;7.70;99.90;;;;;;5111995;28;20383;-54
2023/04/15 01:08:46;;;;;;;8.95;3.85;;;7.70;99.90;;;;;;5111526;28;20019;-53
2023/04/15 01:11:12;;;;;;;8.02;4.15;;;7.60;99.90;;;;;;5111703;28;20455;-50
2023/04/15 01:13:38;;;;;;;8.18;4.55;;;7.40;99.90;;;;;;5111329;28;20020;-52
2023/04/15 01:16:04;;;;;;;6.90;3.97;;;7.30;99.90;;;;;;5111554;28;20024;-49
2023/04/15 01:18:30;;;;;;;7.97;4.10;;;7.10;99.90;;;;;;5113643;28;20031;-50
2023/04/15 01:24:18;;;;;;;10.40;4.95;;;6.80;99.90;;;;;;5114085;28;20046;-54
2023/04/15 01:26:45;;;;;;;10.40;5.53;;;6.70;99.90;;;;;;5115348;28;20047;-50
2023/04/15 01:29:11;;;;;;;7.97;4.82;;;6.70;99.90;;;;;;5115450;28;20467;-53
2023/04/15 01:31:36;;;;;;;12.57;5.72;;;6.80;99.90;;;;;;5115247;28;20028;-52
2023/04/15 01:34:02;;;;;;;11.52;5.72;;;7.00;99.90;;;;;;5096972;28;20070;-54
2023/04/15 01:36:28;;;;;;;8.18;5.85;;;7.10;99.90;;;;;;5115210;28;20487;-54
2023/04/15 01:38:55;;;;;;;12.32;5.70;;;7.30;99.90;;;;;;5114972;28;20027;-55
2023/04/15 01:41:24;;;;;;;8.98;6.18;;;7.30;99.90;;;;;;5114901;28;20039;-53
2023/04/15 01:43:51;;;;;;;11.07;5.82;;;7.30;99.90;;;;;;5114917;28;20016;-54
2023/04/15 01:46:16;;;;;;;11.82;6.20;;;7.30;99.90;;;;;;5114731;28;20016;-53
2023/04/15 01:48:42;;;;;;;13.77;6.05;;;7.30;99.90;;;;;;5114616;28;20073;-55
2023/04/15 01:51:08;;;;;;;9.07;5.90;;;7.30;99.90;;;;;;5114628;28;20206;-60
2023/04/15 01:53:33;;;;;;;9.15;6.45;;;7.30;99.90;;;;;;5114724;28;20031;-55
2023/04/15 01:55:59;;;;;;;7.70;5.90;;;7.30;99.90;;;;;;5114486;28;20475;-53
2023/04/15 01:58:24;;;;;;;6.47;5.70;;;7.30;99.90;;;;;;5114542;28;20024;-55
2023/04/15 02:00:50;;;;;;;15.35;6.93;;;7.20;99.90;;;;;;5114573;28;20049;-57
2023/04/15 02:03:16;;;;;;;10.90;6.03;;;7.20;99.90;;;;;;5114327;28;20406;-48
2023/04/15 02:05:41;;;;;;;7.75;5.53;;;7.20;99.90;;;;;;5114566;28;20027;-55
2023/04/15 02:08:07;;;;;;;12.00;6.53;;;7.20;99.90;;;;;;5115091;28;20115;-54
2023/04/15 02:10:33;;;;;;;8.80;5.70;;;7.10;99.90;;;;;;5114457;28;20020;-55
2023/04/15 02:12:58;;;;;;;10.07;5.50;;;7.10;99.90;;;;;;5114215;28;20494;-58
2023/04/15 02:15:24;;;;;;;7.63;5.90;;;7.00;99.90;;;;;;5114473;28;20028;-51
2023/04/15 02:17:51;;;;;;;10.70;5.45;;;7.00;99.90;;;;;;5114410;28;20024;-54
2023/04/15 02:20:18;;;;;;;11.23;5.70;;;7.00;99.90;;;;;;5114419;28;20019;-51
2023/04/15 02:22:43;;;;;;;7.43;4.97;;;7.00;99.90;;;;;;5114372;28;20035;-52
2023/04/15 02:25:09;;;;;;;8.10;5.18;;;6.90;99.90;;;;;;5113413;28;20539;-57
2023/04/15 02:27:35;;;;;;;7.10;4.80;;;6.80;99.90;;;;;;5114265;28;20046;-59
2023/04/15 02:30:02;;;;;;;7.80;4.90;;;6.70;99.90;;;;;;5113352;28;20028;-53
2023/04/15 02:32:27;;;;;;;10.23;4.47;;;6.60;99.90;;;;;;5114320;28;20107;-58
2023/04/15 02:34:53;;;;;;;9.32;5.78;;;6.50;99.90;;;;;;5113917;28;20152;-59
2023/04/15 02:37:19;;;;;;;11.52;5.45;;;6.50;99.90;;;;;;5114126;28;20455;-51
2023/04/15 02:39:45;;;;;;;10.02;5.05;;;6.60;99.90;;;;;;5114014;28;20055;-52
2023/04/15 02:42:12;;;;;;;6.03;4.75;;;6.60;99.90;;;;;;5113751;28;20375;-52
2023/04/15 02:44:37;;;;;;;10.80;4.88;;;6.50;99.90;;;;;;5113786;28;20019;-54
2023/04/15 02:47:04;;;;;;;12.55;6.15;;;6.50;99.90;;;;;;5095747;28;20020;-56
2023/04/15 02:49:30;;;;;;;7.70;5.07;;;6.60;99.90;;;;;;5113685;28;20019;-54
2023/04/15 02:51:57;;;;;;;7.35;4.53;;;6.60;99.90;;;;;;5113677;28;20024;-52
2023/04/15 02:54:23;;;;;;;6.68;4.38;;;6.50;99.90;;;;;;5113634;28;20019;-54
2023/04/15 02:56:49;;;;;;;6.38;4.65;;;6.40;99.90;;;;;;5113670;28;20031;-53
2023/04/15 02:59:15;;;;;;;10.35;4.63;;;6.30;99.90;;;;;;5113577;28;20045;-55
2023/04/15 03:01:40;;;;;;;6.88;4.55;;;6.30;99.90;;;;;;5094980;28;20106;-52
2023/04/15 03:04:07;;;;;;;7.78;4.40;;;6.30;99.90;;;;;;5113446;28;20514;-50
2023/04/15 03:06:33;;;;;;;9.20;5.35;;;6.30;99.90;;;;;;5113551;28;20027;-53
2023/04/15 03:08:59;;;;;;;7.28;4.40;;;6.20;99.90;;;;;;5113413;28;20043;-57
2023/04/15 03:11:26;;;;;;;10.15;4.45;;;6.00;99.90;;;;;;5113346;28;20026;-54
2023/04/15 03:13:52;;;;;;;7.97;4.53;;;6.00;99.90;;;;;;5113278;28;20069;-49
2023/04/15 03:16:17;;;;;;;7.07;4.20;;;5.90;99.90;;;;;;5113299;28;20028;-55
2023/04/15 03:18:43;;;;;;;10.30;4.88;;;5.80;99.90;;;;;;5113327;28;20032;-54
2023/04/15 03:21:08;;;;;;;5.72;4.10;;;5.70;99.90;;;;;;5094885;28;20362;-50
2023/04/15 03:23:34;;;;;;;9.00;4.90;;;5.70;99.90;;;;;;5112689;28;20020;-52
2023/04/15 03:26:04;;;;;;;7.03;4.88;;;5.60;99.90;;;;;;5113065;28;20027;-55
2023/04/15 03:28:31;;;;;;;6.00;4.30;;;5.60;99.90;;;;;;5112989;28;20024;-55
2023/04/15 03:30:57;;;;;;;5.18;4.00;;;5.60;99.90;;;;;;5113313;28;20054;-55
2023/04/15 03:33:22;;;;;;;8.18;4.32;;;5.60;99.90;;;;;;5112825;28;20016;-51
2023/04/15 03:35:49;;;;;;;7.28;4.53;;;5.60;99.90;;;;;;5112976;28;20107;-53
2023/04/15 03:38:15;;;;;;;7.38;5.35;;;5.60;99.90;;;;;;5112834;28;20024;-54
2023/04/15 03:40:41;;;;;;;11.00;5.38;;;5.60;99.90;;;;;;5112333;28;20028;-56
2023/04/15 03:43:06;;;;;;;5.05;4.50;;;5.60;99.90;;;;;;5112028;28;20027;-53
2023/04/15 03:45:32;;;;;;;5.93;4.50;;;5.60;99.90;;;;;;5112626;28;20027;-56
2023/04/15 03:47:58;;;;;;;5.90;4.03;;;5.60;99.90;;;;;;5112797;28;20227;-53
2023/04/15 03:50:23;;;;;;;8.32;4.93;;;5.60;99.90;;;;;;5094399;28;20395;-53
2023/04/15 03:52:49;;;;;;;5.70;4.22;;;5.70;99.90;;;;;;5112460;28;20020;-53
2023/04/15 03:55:15;;;;;;;6.50;5.07;;;5.70;99.90;;;;;;5112422;28;20514;-52
2023/04/15 03:57:40;;;;;;;7.28;5.22;;;5.80;99.90;;;;;;5112646;28;20102;-53
2023/04/15 04:00:10;;;;;;;6.20;4.97;;;5.80;99.90;;;;;;5112455;28;20130;-51
2023/04/15 04:02:36;;;;;;;5.53;5.00;;;5.80;99.90;;;;;;5112700;28;20063;-57
2023/04/15 04:05:01;;;;;;;6.82;4.57;;;5.80;99.90;;;;;;5112425;28;20052;-52
2023/04/15 04:07:27;;;;;;;12.30;4.32;;;5.80;99.90;;;;;;5112426;28;20566;-54
2023/04/15 04:09:53;;;;;;;5.65;4.95;;;5.90;99.90;;;;;;5111862;28;20101;-59
2023/04/15 04:12:18;;;;;;;8.88;5.40;;;5.80;99.90;;;;;;5112297;28;20027;-54
2023/04/15 04:14:44;;;;;;;6.20;5.20;;;5.80;99.90;;;;;;5112181;28;20024;-54
2023/04/15 04:17:10;;;;;;;8.57;5.18;;;5.90;99.90;;;;;;5112221;28;20023;-52
2023/04/15 04:19:35;;;;;;;9.25;5.45;;;5.90;99.90;;;;;;5112097;28;20031;-53
2023/04/15 04:22:01;;;;;;;11.52;6.00;;;5.90;99.90;;;;;;5111823;28;20023;-59
2023/04/15 04:24:26;;;;;;;7.82;4.70;;;5.90;99.90;;;;;;5111897;28;20031;-54
2023/04/15 04:26:52;;;;;;;7.45;5.22;;;5.90;99.90;;;;;;5112058;28;20027;-55
2023/04/15 04:29:17;;;;;;;8.00;5.28;;;5.90;99.90;;;;;;5112047;28;20030;-56
2023/04/15 04:31:43;;;;;;;9.20;6.22;;;5.80;99.90;;;;;;5111975;28;20012;-54
2023/04/15 04:34:08;;;;;;;9.05;5.50;;;5.80;99.90;;;;;;5111906;28;20027;-54
2023/04/15 04:36:34;;;;;;;8.35;5.55;;;5.90;99.90;;;;;;5112330;28;20020;-56
2023/04/15 04:39:00;;;;;;;11.93;5.38;;;5.90;99.90;;;;;;5112618;28;20098;-56
2023/04/15 04:41:26;;;;;;;8.95;5.32;;;5.80;99.90;;;;;;5112983;28;20403;-51
2023/04/15 04:43:51;;;;;;;10.30;6.47;;;5.90;99.90;;;;;;5111768;28;20491;-50
2023/04/15 04:46:17;;;;;;;13.48;6.18;;;5.90;99.90;;;;;;5111546;28;20037;-49
2023/04/15 04:48:42;;;;;;;10.63;6.10;;;5.90;99.90;;;;;;5111711;28;20020;-50
2023/04/15 04:51:08;;;;;;;7.63;5.22;;;5.90;99.90;;;;;;5111779;28;20402;-50
2023/04/15 04:53:34;;;;;;;7.43;5.13;;;5.90;99.90;;;;;;5114070;28;20020;-49
2023/04/15 04:56:00;;;;;;;18.13;6.70;;;5.90;99.90;;;;;;5116337;28;20510;-51
2023/04/15 04:58:26;;;;;;;7.90;5.57;;;5.90;99.90;;;;;;5115879;28;20097;-50
2023/04/15 05:00:51;;;;;;;8.55;6.32;;;5.90;99.90;;;;;;5116011;28;20070;-54
2023/04/15 05:03:17;;;;;;;11.05;5.15;;;6.00;99.90;;;;;;5115862;28;20036;-51
2023/04/15 05:05:42;;;;;;;8.93;6.00;;;6.00;99.90;;;;;;5115802;28;20063;-50
2023/04/15 05:08:08;;;;;;;9.02;5.32;;;6.00;99.90;;;;;;5115770;28;20103;-50
2023/04/15 05:10:33;;;;;;;7.57;5.47;;;6.00;99.90;;;;;;5115674;28;20031;-52
2023/04/15 05:12:59;;;;;;;7.72;5.55;;;5.90;99.90;;;;;;5115479;28;20015;-55
2023/04/15 05:15:24;;;;;;;9.95;5.55;;;6.00;99.90;;;;;;5115675;28;20384;-50
2023/04/15 05:17:50;;;;;;;6.88;4.65;;;6.00;99.90;;;;;;5097173;28;20397;-54
2023/04/15 05:20:16;;;;;;;7.28;5.00;;;6.10;99.90;;;;;;5115565;28;20027;-51
2023/04/15 05:22:41;;;;;;;9.15;5.88;;;6.10;99.90;;;;;;5115447;28;20035;-57
2023/04/15 05:25:07;;;;;;;10.43;5.38;;;6.20;99.90;;;;;;5115033;28;20034;-50
2023/04/15 05:27:33;;;;;;;5.65;4.53;;;6.30;99.90;;;;;;5097066;28;20028;-49
2023/04/15 05:29:58;;;;;;;7.53;5.03;;;6.30;99.90;;;;;;5115329;28;20383;-52
2023/04/15 05:32:24;;;;;;;8.18;4.95;;;6.30;99.90;;;;;;5097120;28;20211;-53
2023/04/15 05:34:50;;;;;;;6.93;4.88;;;6.30;99.90;;;;;;5115336;28;20027;-52
2023/04/15 05:37:15;;;;;;;16.38;6.13;;;6.20;99.90;;;;;;5115218;28;20055;-52
2023/04/15 05:39:42;;;;;;;7.95;4.93;;;6.20;99.90;;;;;;5115354;28;20050;-54
2023/04/15 05:42:07;;;;;;;9.07;6.25;;;6.20;99.90;;;;;;5115009;28;20059;-51
2023/04/15 05:44:33;;;;;;;14.98;4.90;;;6.10;99.90;;;;;;5115034;28;20055;-51
2023/04/15 05:46:59;;;;;;;8.02;4.90;;;6.10;99.90;;;;;;5115146;28;20046;-53
2023/04/15 05:49:25;;;;;;;12.02;5.35;;;6.10;99.90;;;;;;5114956;28;20012;-56
2023/04/15 05:51:50;;;;;;;5.88;5.07;;;6.20;99.90;;;;;;5114543;28;20023;-55
2023/04/15 05:54:17;;;;;;;10.38;6.40;;;6.30;99.90;;;;;;5114636;28;20099;-50
2023/04/15 05:56:43;;;;;;;13.15;5.55;;;6.40;99.90;;;;;;5114928;28;20024;-56
2023/04/15 05:59:08;;;;;;;10.40;5.78;;;6.50;99.90;;;;;;5114756;28;20129;-53
2023/04/15 06:01:34;;;;;;;10.63;5.90;;;6.60;99.90;;;;;;5096760;28;20035;-55
2023/04/15 06:04:00;;;;;;;10.27;5.20;;;6.70;99.90;;;;;;5095533;28;20031;-53
2023/04/15 06:06:26;;;;;;;13.35;5.55;;;6.80;99.90;;;;;;5114430;28;20077;-51
2023/04/15 06:08:52;;;;;;;12.38;4.20;;;6.90;99.90;;;;;;5114803;28;20031;-56
2023/04/15 06:11:20;;;;;;;19.23;4.90;;;7.00;99.90;;;;;;5084969;22;20053;-44
2023/04/15 06:13:46;;;;;;;6.32;4.20;;;7.20;99.90;;;;;;5033653;28;20022;-49
2023/04/15 06:16:12;;;;;;;9.35;4.22;;;7.20;99.90;;;;;;5033891;28;20030;-46
2023/04/15 06:18:37;;;;;;;11.63;4.43;;;7.40;99.90;;;;;;5033918;28;20029;-48
2023/04/15 06:21:03;;;;;;;9.55;4.70;;;7.60;99.90;;;;;;5016070;28;20064;-45
2023/04/15 06:23:29;;;;;;;10.85;4.65;;;7.60;99.90;;;;;;5033066;28;20076;-43
2023/04/15 06:25:54;;;;;;;9.20;4.40;;;7.80;99.90;;;;;;5033683;28;20120;-45
2023/04/15 06:28:20;;;;;;;17.52;5.88;;;8.10;99.90;;;;;;5033708;28;20120;-45
2023/04/15 06:30:46;;;;;;;9.50;4.60;;;8.20;99.90;;;;;;5033665;28;20032;-50
2023/04/15 06:33:12;;;;;;;10.60;5.10;;;8.40;99.90;;;;;;5033562;28;20156;-47
2023/04/15 06:35:38;;;;;;;6.22;3.88;;;8.50;99.90;;;;;;5033632;28;20374;-50
2023/04/15 06:38:03;;;;;;;7.47;4.68;;;8.50;99.90;;;;;;5033583;28;20485;-44
2023/04/15 06:40:29;;;;;;;9.15;4.85;;;8.50;99.90;;;;;;5033389;28;20029;-46
2023/04/15 06:42:54;;;;;;;7.25;4.25;;;8.50;99.90;;;;;;5033511;28;20021;-48
2023/04/15 06:45:20;;;;;;;15.40;5.07;;;8.50;99.90;;;;;;5033292;28;20045;-47
2023/04/15 06:47:46;;;;;;;6.15;4.03;;;8.80;99.90;;;;;;5033514;28;20095;-47
2023/04/15 06:50:11;;;;;;;8.70;3.70;;;9.30;99.90;;;;;;5033299;28;20401;-44
2023/04/15 06:52:37;;;;;;;5.30;3.63;;;10.00;99.90;;;;;;5033153;28;20113;-43
2023/04/15 06:55:02;;;;;;;9.70;4.43;;;10.80;99.90;;;;;;5033182;28;20029;-46
2023/04/15 06:57:28;;;;;;;15.00;3.90;;;11.50;99.90;;;;;;5032933;28;20029;-46
2023/04/15 06:59:54;;;;;;;7.88;3.17;;;12.00;99.90;;;;;;5032997;28;20034;-41
2023/04/15 07:02:20;;;;;;;4.78;3.58;;;12.20;99.90;;;;;;5033245;28;20480;-46
2023/04/15 07:04:45;;;;;;;9.35;3.80;;;12.30;99.90;;;;;;5032935;28;20035;-47
2023/04/15 07:07:11;;;;;;;7.40;3.40;;;12.40;99.90;;;;;;5033192;28;20026;-45
2023/04/15 07:09:37;;;;;;;5.95;3.60;;;12.60;99.90;;;;;;5015224;28;20396;-44
2023/04/15 07:12:03;;;;;;;10.82;3.33;;;13.10;99.90;;;;;;5032685;28;20029;-45
2023/04/15 07:14:28;;;;;;;11.50;3.58;;;13.80;99.90;;;;;;5032761;28;20436;-50
2023/04/15 07:16:54;;;;;;;7.85;3.42;;;14.50;99.20;;;;;;5032535;28;20014;-44
2023/04/15 07:19:20;;;;;;;8.93;3.47;;;;;;;;;;5032742;28;20018;-48
2023/04/15 07:21:46;;;;;;;4.75;4.07;;;16.00;97.20;;;;;;5032632;28;20013;-46
2023/04/15 07:24:15;;;;;;;6.70;3.80;;;15.70;95.50;;;;;;5032127;28;20497;-49
2023/04/15 07:26:41;;;;;;;5.20;4.05;;;15.80;95.70;;;;;;5032566;28;20025;-46
2023/04/15 07:29:06;;;;;;;9.93;4.22;;;15.70;95.80;;;;;;5032461;28;20029;-47
2023/04/15 07:31:32;;;;;;;6.18;3.78;;;15.50;96.10;;;;;;5031681;28;20017;-43
2023/04/15 07:33:57;;;;;;;6.90;4.47;;;15.70;96.20;;;;;;5031430;28;20078;-46
2023/04/15 07:36:23;;;;;;;9.43;4.82;;;16.00;95.90;;;;;;5032338;28;20076;-47
2023/04/15 07:38:48;;;;;;;5.38;4.25;;;16.10;95.90;;;;;;5032421;28;20057;-45
2023/04/15 07:41:14;;;;;;;8.73;4.55;;;16.30;95.20;;;;;;5032408;28;20103;-46
2023/04/15 07:43:40;;;;;;;6.95;3.95;;;16.10;94.90;;;;;;5032139;28;20551;-45
2023/04/15 07:46:05;;;;;;;5.47;3.38;;;16.40;95.00;;;;;;5032045;28;20069;-48
2023/04/15 07:48:31;;;;;;;6.85;3.78;;;17.00;94.90;;;;;;5031841;28;20489;-48
2023/04/15 07:50:57;;;;;;;4.93;3.17;;;17.40;93.70;;;;;;5031485;28;20033;-45
2023/04/15 07:53:23;;;;;;;6.07;3.35;;;18.20;93.20;;;;;;5031944;28;20433;-48
2023/04/15 07:55:48;;;;;;;10.73;3.95;;;18.70;92.20;;;;;;5014620;28;20021;-47
2023/04/15 07:58:13;;;;;;;5.32;3.53;;;19.20;90.40;;;;;;5032141;28;20060;-47
2023/04/15 08:00:39;;;;;;;10.23;4.38;;;19.50;90.30;;;;;;5032044;28;20035;-47
2023/04/15 08:03:05;;;;;;;5.20;3.50;;;19.70;88.90;;;;;;5031722;28;20044;-44
2023/04/15 08:05:31;;;;;;;4.95;3.72;;;19.60;88.30;;;;;;5032037;28;20029;-47
2023/04/15 08:07:57;;;;;;;4.03;3.60;;;19.20;89.50;;;;;;5031707;28;20551;-44
2023/04/15 08:10:22;;;;;;;4.50;3.88;;;20.30;87.80;;;;;;5031891;28;20032;-43
2023/04/15 08:12:48;;;;;;;7.80;3.92;;;20.00;86.10;;;;;;5032279;28;20401;-48
2023/04/15 08:15:14;;;;;;;8.32;4.05;;;20.50;84.90;;;;;;5031588;28;20026;-45
2023/04/15 08:17:39;;;;;;;6.25;3.75;;;20.60;83.90;;;;;;5030434;28;20036;-47
2023/04/15 08:20:05;;;;;;;4.28;3.88;;;21.00;83.50;;;;;;5031778;28;20029;-46
2023/04/15 08:22:31;;;;;;;6.50;3.92;;;21.00;82.70;;;;;;5032028;28;20390;-40
2023/04/15 08:24:56;;;;;;;7.45;3.88;;;21.10;81.90;;;;;;5031081;28;20036;-48
2023/04/15 08:27:22;;;;;;;4.85;4.03;;;21.00;81.70;;;;;;5031149;28;20026;-46
2023/04/15 08:29:47;;;;;;;7.03;4.00;;;20.60;82.30;;;;;;5031322;28;20028;-44
2023/04/15 08:32:13;;;;;;;4.68;3.95;;;20.40;82.00;;;;;;5031398;28;20018;-46
2023/04/15 08:34:39;;;;;;;5.45;4.78;;;20.30;83.90;;;;;;5031184;28;20108;-47
2023/04/15 08:37:05;;;;;;;5.25;4.28;;;20.30;83.90;;;;;;5031576;28;20017;-44
2023/04/15 08:39:31;;;;;;;5.90;4.43;;;20.20;83.50;;;;;;5031184;28;20032;-44
2023/04/15 08:42:01;;;;;;;6.63;4.63;;;20.40;83.30;;;;;;5031007;28;20029;-49
2023/04/15 08:44:30;;;;;;;7.43;4.97;;;20.50;82.40;;;;;;5031036;28;20017;-46
2023/04/15 08:46:59;;;;;;;5.82;4.60;;;20.00;82.00;;;;;;5030551;28;20147;-46
2023/04/15 08:49:27;;;;;;;5.50;5.00;;;19.30;84.60;;;;;;5018221;28;20037;-49
2023/04/15 08:51:54;;;;;;;4.78;4.35;;;17.20;88.90;;;;;;5031366;28;20033;-44
2023/04/15 08:54:19;;;;;;;9.00;6.32;;;16.80;90.90;;;;;;5032166;28;20278;-45
2023/04/15 08:56:45;;;;;;;9.13;4.85;;;16.70;91.40;;;;;;5037657;28;20033;-45
2023/04/15 08:59:11;;;;;;;5.30;4.60;;;17.00;91.90;;;;;;5030946;28;20025;-44
2023/04/15 09:01:37;;;;;;;6.38;4.78;;;17.40;91.50;;;;;;5031456;28;20500;-50
2023/04/15 09:04:05;;;;;;;5.88;4.18;;;17.30;90.90;;;;;;5030740;28;20104;-45
2023/04/15 09:06:30;;;;;;;5.85;4.82;;;17.10;90.80;;;;;;5030804;28;20535;-50
2023/04/15 09:08:56;;;;;;;4.63;3.67;;;17.00;90.30;;;;;;5030931;28;20179;-47
2023/04/15 09:11:22;;;;;;;4.07;3.63;;;16.70;90.90;;;;;;5031024;28;20025;-52
2023/04/15 09:13:48;;;;;;;7.30;3.63;;;16.40;90.80;;;;;;5030687;28;20026;-45
2023/04/15 09:16:14;;;;;;;5.30;3.22;;;16.30;90.60;;;;;;5030752;28;20041;-45
2023/04/15 09:18:40;;;;;;;4.80;3.60;;;15.60;91.60;;;;;;5030650;28;20024;-47
2023/04/15 09:21:08;;;;;;;5.65;3.70;;;15.70;92.30;;;;;;5030776;28;20112;-45
2023/04/15 09:23:34;;;;;;;5.35;4.80;;;15.40;92.60;;;;;;5030846;28;20036;-49
2023/04/15 09:26:01;;;;;;;5.03;3.17;;;15.40;93.00;;;;;;5031465;28;20036;-47
2023/04/15 09:28:27;;;;;;;4.80;3.25;;;15.40;92.60;;;;;;5031013;28;20033;-44
2023/04/15 09:31:00;;;;;;;2.88;2.10;;;15.20;92.60;;;;;;5031387;28;20040;-47
2023/04/15 09:33:27;;;;;;;5.97;2.53;;;15.20;92.60;;;;;;5013676;28;20047;-44
2023/04/15 09:36:04;;;;;;;2.30;2.10;;;15.00;92.60;;;;;;5031208;28;20052;-49
2023/04/15 09:38:30;;;;;;;3.47;2.15;;;14.60;92.60;;;;;;5031888;28;20080;-48
2023/04/15 09:40:56;;;;;;;3.03;1.90;;;14.60;93.90;;;;;;5034363;28;20438;-46
2023/04/15 09:43:35;;;;;;;3.17;2.20;;;14.50;92.40;;;;;;5034586;28;20032;-48
2023/04/15 09:46:01;;;;;;;4.47;2.13;;;14.70;91.70;;;;;;5034593;28;20030;-49
2023/04/15 09:48:27;;;;;;;4.18;2.15;;;14.70;91.60;;;;;;5034896;28;20029;-46
2023/04/15 09:50:56;;;;;;;2.20;1.90;;;14.60;91.70;;;;;;5034458;28;20101;-44
2023/04/15 09:53:24;;;;;;;3.83;2.38;;;14.60;91.80;;;;;;5034314;28;20108;-44
2023/04/15 09:55:51;;;;;;;4.57;2.03;;;14.60;91.20;;;;;;5034204;28;20033;-47
2023/04/15 09:58:22;;;;;;;3.30;2.00;;;14.30;91.70;;;;;;5034129;28;20481;-47
2023/04/15 10:00:49;;;;;;;2.17;1.98;;;14.30;91.90;;;;;;5034028;28;20033;-47
2023/04/15 10:03:22;;;;;;;2.33;1.90;;;14.50;92.50;;;;;;5034214;28;20048;-49
2023/04/15 10:05:50;;;;;;;3.85;2.50;;;14.50;92.60;;;;;;5034455;28;20025;-48
2023/04/15 10:08:21;;;;;;;5.65;2.60;;;14.20;92.50;;;;;;5034822;28;20076;-45
2023/04/15 10:10:47;;;;;;;5.72;2.00;;;14.30;92.60;;;;;;5033347;28;20025;-46
2023/04/15 10:13:16;;;;;;;2.10;1.90;;;14.20;93.10;;;;;;5033833;28;20018;-46
2023/04/15 10:15:56;;;;;;;3.78;2.13;;;14.40;93.20;;;;;;5034436;28;20055;-46
2023/04/15 10:18:25;;;;;;;2.05;1.67;;;14.60;92.80;;;;;;5034321;28;20507;-46
2023/04/15 10:20:52;;;;;;;2.25;1.90;;;14.70;92.50;;;;;;5034306;28;20037;-43
2023/04/15 10:23:19;;;;;;;4.03;1.75;;;14.80;92.70;;;;;;5015730;28;20048;-45
2023/04/15 10:25:45;;;;;;;2.03;1.40;;;14.90;92.30;;;;;;5033506;28;20463;-42
2023/04/15 10:28:11;;;;;;;3.72;2.13;;;14.90;92.30;;;;;;5033832;28;20097;-47
2023/04/15 10:30:37;;;;;;;2.42;2.22;;;15.00;93.80;;;;;;5015623;28;20116;-46
2023/04/15 10:33:04;;;;;;;5.05;2.25;;;15.00;93.60;;;;;;5032877;28;20104;-42
2023/04/15 10:35:31;;;;;;;5.85;2.58;;;15.00;93.50;;;;;;5031487;28;20445;-47
2023/04/15 10:37:56;;;;;;;3.38;2.42;;;14.90;93.40;;;;;;5030961;28;20579;-47
2023/04/15 10:40:27;;;;;;;5.15;2.88;;;14.90;92.90;;;;;;5013076;28;20033;-46
2023/04/15 10:42:58;;;;;;;5.38;2.40;;;14.90;93.20;;;;;;5032196;28;20064;-44
2023/04/15 10:45:36;;;;;;;5.40;2.28;;;14.80;93.20;;;;;;5014344;28;20033;-50
2023/04/15 10:48:03;;;;;;;3.83;1.98;;;14.80;93.10;;;;;;5015547;28;20536;-48
2023/04/15 10:50:31;;;;;;;4.05;1.77;;;14.90;92.90;;;;;;5032622;28;20032;-48
2023/04/15 10:52:58;;;;;;;4.70;2.13;;;15.00;92.60;;;;;;5032918;28;20026;-45
2023/04/15 10:55:26;;;;;;;3.50;2.10;;;14.90;92.80;;;;;;5033333;28;20025;-45
2023/04/15 10:57:59;;;;;;;2.95;2.13;;;14.90;92.70;;;;;;5015471;28;20083;-46
2023/04/15 11:00:28;;;;;;;4.68;2.15;;;15.00;93.00;;;;;;5032433;28;20036;-46
2023/04/15 11:03:03;;;;;;;13.25;8.38;;;15.00;92.50;;;;;;5033162;28;20099;-46
2023/04/15 11:05:49;;;;;;;4.20;3.40;;;15.00;92.30;;;;;;5033024;28;20128;-47
2023/04/15 11:08:16;;;;;;;6.68;4.20;;;14.80;93.30;;;;;;5032750;28;20452;-50
2023/04/15 11:10:41;;;;;;;8.05;2.83;;;14.60;93.70;;;;;;5032132;28;20036;-47
2023/04/15 11:13:09;;;;;;;4.03;2.22;;;14.50;94.40;;;;;;5014581;28;20025;-45
2023/04/15 11:15:45;;;;;;;2.58;1.95;;;14.40;95.00;;;;;;5014807;28;20529;-45
2023/04/15 11:18:21;;;;;;;3.35;2.05;;;14.30;94.50;;;;;;5032911;28;20048;-48
2023/04/15 11:21:01;;;;;;;4.38;2.13;;;14.40;94.20;;;;;;5032245;28;20456;-42
2023/04/15 11:23:33;;;;;;;2.95;2.40;;;14.50;94.50;;;;;;5032568;28;20033;-48
2023/04/15 11:26:00;;;;;;;3.15;2.50;;;14.70;94.00;;;;;;5032453;28;20029;-50
2023/04/15 11:28:27;;;;;;;5.18;2.17;;;14.60;94.30;;;;;;5032729;28;20092;-44
2023/04/15 11:30:54;;;;;;;4.82;3.33;;;14.70;94.20;;;;;;5032710;28;20393;-43
2023/04/15 11:33:21;;;;;;;4.70;2.45;;;14.80;94.40;;;;;;5033380;28;20021;-48
2023/04/15 11:35:47;;;;;;;1.83;1.60;;;14.90;91.80;;;;;;5033061;28;20107;-46
2023/04/15 11:38:14;;;;;;;1.83;1.48;;;14.80;92.50;;;;;;5035738;28;20489;-45
2023/04/15 11:40:40;;;;;;;2.65;1.70;;;14.60;90.20;;;;;;5033245;28;20029;-46
2023/04/15 11:43:12;;;;;;;2.08;1.30;;;14.40;90.90;;;;;;5032560;28;20157;-42
2023/04/15 11:45:54;;;;;;;1.77;1.25;;;14.70;91.30;;;;;;5032727;28;20040;-46
2023/04/15 11:48:23;;;;;;;5.00;1.70;;;15.00;91.30;;;;;;5032591;28;20060;-51
2023/04/15 11:50:56;;;;;;;1.15;0.98;;;15.10;89.50;;;;;;5032677;28;20515;-42
2023/04/15 11:53:23;;;;;;;0.80;0.80;;;15.10;87.20;;;;;;5032997;28;20021;-47
2023/04/15 11:55:50;;;;;;;4.95;1.25;;;15.20;87.30;;;;;;5032479;28;20032;-46
2023/04/15 11:58:21;;;;;;;1.55;0.95;;;15.20;86.10;;;;;;5032595;28;20108;-43
2023/04/15 12:00:54;;;;;;;1.27;1.02;;;15.30;87.40;;;;;;5032974;28;20033;-46
2023/04/15 12:03:27;;;;;;;3.92;0.80;;;15.50;87.40;;;;;;5031413;28;20032;-44
2023/04/15 12:06:01;;;;;;;1.35;0.73;;;15.60;88.50;;;;;;5032436;28;20073;-49
2023/04/15 12:08:47;;;;;;;1.90;1.00;;;15.50;88.00;;;;;;5031755;28;20510;-44
2023/04/15 12:11:14;;;;;;;0.75;0.73;;;15.60;88.40;;;;;;5067432;22;20482;-52
2023/04/15 12:13:45;;;;;;;1.60;0.90;;;15.50;88.50;;;;;;5073433;28;20020;-48
2023/04/15 12:16:11;;;;;;;1.55;1.10;;;15.30;88.80;;;;;;5092067;28;20044;-50
2023/04/15 12:18:37;;;;;;;2.97;1.42;;;15.00;88.60;;;;;;5091647;28;20031;-50
2023/04/15 12:21:13;;;;;;;2.33;1.30;;;14.90;90.00;;;;;;5091600;28;20028;-50
2023/04/15 12:23:51;;;;;;;7.57;1.85;;;14.80;90.10;;;;;;5091652;28;20039;-52
2023/04/15 12:26:24;;;;;;;2.40;1.60;;;14.70;91.30;;;;;;5091621;28;20055;-48
2023/04/15 12:28:59;;;;;;;1.60;1.40;;;14.40;92.80;;;;;;5091392;28;20118;-52
2023/04/15 12:31:25;;;;;;;1.42;1.30;;;14.30;93.60;;;;;;5091717;28;20024;-49
2023/04/15 12:33:53;;;;;;;2.63;1.10;;;14.30;94.10;;;;;;5091514;28;20020;-48
2023/04/15 12:36:19;;;;;;;1.40;1.30;;;14.00;94.20;;;;;;5091781;28;20012;-49
2023/04/15 12:38:44;;;;;;;1.15;1.05;;;13.30;96.40;;;;;;5091721;28;20039;-47
2023/04/15 12:41:10;;;;;;;1.65;0.90;;;13.20;98.40;;;;;;5073549;28;20046;-51
2023/04/15 12:43:35;;;;;;;2.30;1.30;;;13.00;99.50;;;;;;5091352;28;20024;-48
2023/04/15 12:46:01;;;;;;;1.20;1.10;;;13.10;99.90;;;;;;5091332;28;20024;-50
2023/04/15 12:48:27;;;;;;;1.77;0.90;;;12.60;99.90;;;;;;5091477;28;20492;-52
2023/04/15 12:50:52;;;;;;;1.00;1.00;;;12.30;99.90;;;;;;5073327;28;20020;-52